createdAt,value
2019-02-12T00:01:08.826Z,1022.82
2019-02-12T00:06:04.809Z,1022.99
2019-02-12T00:11:01.560Z,1023.01
2019-02-12T00:15:56.755Z,1023.14
2019-02-12T00:20:52.149Z,1023.19
2019-02-12T00:25:48.796Z,1023.14
2019-02-12T00:30:44.785Z,1023.14
2019-02-12T00:35:40.050Z,1023.13
2019-02-12T00:40:41.287Z,1023.21
2019-02-12T00:45:36.823Z,1023.13
2019-02-12T00:50:32.501Z,1023.04
2019-02-12T00:55:28.252Z,1023.09
2019-02-12T01:00:24.106Z,1022.97
2019-02-12T01:05:19.966Z,1023.13
2019-02-12T01:10:15.564Z,1023.17
2019-02-12T01:15:12.254Z,1023.17
2019-02-12T01:20:07.706Z,1023.27
2019-02-12T01:25:04.084Z,1023.37
2019-02-12T01:30:00.820Z,1023.45
2019-02-12T01:34:56.237Z,1023.49
2019-02-12T01:39:51.853Z,1023.49
2019-02-12T01:44:48.619Z,1023.31
2019-02-12T01:49:49.089Z,1023.33
2019-02-12T01:54:43.743Z,1023.47
2019-02-12T01:59:39.358Z,1023.46
2019-02-12T02:04:34.906Z,1023.50
2019-02-12T02:09:30.546Z,1023.68
2019-02-12T02:14:26.173Z,1023.71
2019-02-12T02:19:22.522Z,1023.79
2019-02-12T02:24:18.413Z,1023.72
2019-02-12T02:29:14.241Z,1023.81
2019-02-12T02:34:10.760Z,1023.83
2019-02-12T02:39:06.613Z,1023.75
2019-02-12T02:44:02.062Z,1023.76
2019-02-12T02:48:57.568Z,1023.76
2019-02-12T02:53:54.174Z,1023.78
2019-02-12T02:58:49.578Z,1023.72
2019-02-12T03:03:46.226Z,1023.77
2019-02-12T03:08:41.418Z,1023.83
2019-02-12T03:13:36.914Z,1023.93
2019-02-12T03:18:33.149Z,1023.89
2019-02-12T03:23:29.111Z,1023.89
2019-02-12T03:28:24.709Z,1023.92
2019-02-12T03:33:21.035Z,1023.84
2019-02-12T03:38:16.602Z,1023.91
2019-02-12T03:43:12.236Z,1023.98
2019-02-12T03:48:07.868Z,1023.97
2019-02-12T03:53:03.326Z,1023.90
2019-02-12T03:57:58.869Z,1024.10
2019-02-12T04:02:55.181Z,1023.98
2019-02-12T04:07:50.382Z,1023.86
2019-02-12T04:12:46.465Z,1023.89
2019-02-12T04:17:42.915Z,1023.91
2019-02-12T04:22:39.191Z,1023.93
2019-02-12T04:27:34.777Z,1024.06
2019-02-12T04:32:31.311Z,1023.96
2019-02-12T04:37:26.740Z,1024.02
2019-02-12T04:42:23.203Z,1023.97
2019-02-12T04:47:18.533Z,1024.01
2019-02-12T04:52:13.795Z,1023.91
2019-02-12T04:57:10.708Z,1024.03
2019-02-12T05:02:06.956Z,1024.09
2019-02-12T05:07:02.439Z,1024.07
2019-02-12T05:11:58.006Z,1024.07
2019-02-12T05:16:53.646Z,1024.12
2019-02-12T05:21:50.386Z,1024.11
2019-02-12T05:26:45.493Z,1024.18
2019-02-12T05:31:43.018Z,1024.19
2019-02-12T05:36:38.201Z,1024.10
2019-02-12T05:41:33.670Z,1024.17
2019-02-12T05:46:29.370Z,1024.22
2019-02-12T05:51:25.454Z,1024.21
2019-02-12T05:56:21.989Z,1024.27
2019-02-12T06:01:18.514Z,1024.31
2019-02-12T06:06:13.870Z,1024.31
2019-02-12T06:11:09.494Z,1024.39
2019-02-12T06:16:05.255Z,1024.40
2019-02-12T06:21:02.253Z,1024.46
2019-02-12T06:25:58.126Z,1024.53
2019-02-12T06:30:57.520Z,1024.65
2019-02-12T06:35:52.005Z,1024.59
2019-02-12T06:40:48.508Z,1024.61
2019-02-12T06:45:44.024Z,1024.72
2019-02-12T06:50:39.632Z,1024.85
2019-02-12T06:55:36.261Z,1024.83
2019-02-12T07:00:31.581Z,1024.86
2019-02-12T07:05:27.206Z,1025.03
2019-02-12T07:10:22.846Z,1024.99
2019-02-12T07:15:19.532Z,1025.00
2019-02-12T07:20:15.301Z,1025.09
2019-02-12T07:25:11.701Z,1025.18
2019-02-12T07:30:07.117Z,1025.36
2019-02-12T07:35:02.569Z,1025.35
2019-02-12T07:39:58.340Z,1025.45
2019-02-12T07:44:54.290Z,1025.54
2019-02-12T07:49:50.056Z,1025.47
2019-02-12T07:54:45.705Z,1025.51
2019-02-12T07:59:41.476Z,1025.58
2019-02-12T08:04:37.403Z,1025.50
2019-02-12T08:09:34.123Z,1025.68
2019-02-12T08:14:30.668Z,1025.73
2019-02-12T08:19:26.138Z,1025.75
2019-02-12T08:24:22.269Z,1025.90
2019-02-12T08:29:18.944Z,1025.94
2019-02-12T08:34:14.205Z,1025.98
2019-02-12T08:39:10.316Z,1026.02
2019-02-12T08:44:07.047Z,1026.05
2019-02-12T08:49:03.743Z,1026.11
2019-02-12T08:54:00.278Z,1026.24
2019-02-12T08:58:55.573Z,1026.19
2019-02-12T09:03:52.463Z,1026.25
2019-02-12T09:08:47.897Z,1026.25
2019-02-12T09:13:44.063Z,1026.11
2019-02-12T09:18:39.688Z,1026.23
2019-02-12T09:23:36.499Z,1026.24
2019-02-12T09:28:33.028Z,1026.31
2019-02-12T09:33:28.659Z,1026.30
2019-02-12T09:38:24.622Z,1026.42
2019-02-12T09:43:21.669Z,1026.45
2019-02-12T09:48:18.454Z,1026.29
2019-02-12T09:53:14.991Z,1026.37
2019-02-12T09:58:10.471Z,1026.40
2019-02-12T10:03:06.008Z,1026.52
2019-02-12T10:08:02.131Z,1026.60
2019-02-12T10:12:57.904Z,1026.66
2019-02-12T10:17:55.355Z,1026.64
2019-02-12T10:22:50.884Z,1026.67
2019-02-12T10:27:46.691Z,1026.78
2019-02-12T10:32:42.384Z,1026.79
2019-02-12T10:37:38.116Z,1026.70
2019-02-12T10:42:33.953Z,1026.75
2019-02-12T10:47:29.849Z,1026.75
2019-02-12T10:52:25.699Z,1026.77
2019-02-12T10:57:26.695Z,1026.63
2019-02-12T11:02:21.592Z,1026.63
2019-02-12T11:07:17.782Z,1026.61
2019-02-12T11:12:14.147Z,1026.58
2019-02-12T11:17:10.173Z,1026.50
2019-02-12T11:22:06.305Z,1026.56
2019-02-12T11:27:02.286Z,1026.54
2019-02-12T11:31:59.246Z,1026.53
2019-02-12T11:36:56.101Z,1026.49
2019-02-12T11:41:52.077Z,1026.50
2019-02-12T11:46:47.671Z,1026.42
2019-02-12T11:51:43.716Z,1026.33
2019-02-12T11:56:40.337Z,1026.37
2019-02-12T12:01:36.148Z,1026.38
2019-02-12T12:06:32.028Z,1026.34
2019-02-12T12:11:27.887Z,1026.30
2019-02-12T12:16:24.417Z,1026.27
2019-02-12T12:21:20.262Z,1026.18
2019-02-12T12:26:19.780Z,1026.23
2019-02-12T12:31:14.263Z,1026.17
2019-02-12T12:36:10.038Z,1026.18
2019-02-12T12:41:05.918Z,1026.07
2019-02-12T12:46:01.745Z,1026.15
2019-02-12T12:50:58.018Z,1026.05
2019-02-12T12:55:55.260Z,1026.09
2019-02-12T13:00:50.443Z,1026.15
2019-02-12T13:05:47.093Z,1026.16
2019-02-12T13:10:42.532Z,1026.15
2019-02-12T13:15:37.885Z,1026.20
2019-02-12T13:20:34.925Z,1026.31
2019-02-12T13:25:30.294Z,1026.33
2019-02-12T13:30:26.466Z,1026.25
2019-02-12T13:35:23.298Z,1026.26
2019-02-12T13:40:18.730Z,1026.17
2019-02-12T13:45:19.337Z,1026.15
2019-02-12T13:50:14.028Z,1026.19
2019-02-12T13:55:17.066Z,1026.17
2019-02-12T14:00:11.775Z,1026.05
2019-02-12T14:05:07.324Z,1026.26
2019-02-12T14:10:03.080Z,1026.29
2019-02-12T14:14:58.838Z,1026.28
2019-02-12T14:19:55.493Z,1026.29
2019-02-12T14:24:51.734Z,1026.25
2019-02-12T14:29:48.798Z,1026.38
2019-02-12T14:34:44.434Z,1026.33
2019-02-12T14:39:40.650Z,1026.35
2019-02-12T14:44:37.206Z,1026.36
2019-02-12T14:49:33.814Z,1026.35
2019-02-12T14:54:29.343Z,1026.36
2019-02-12T14:59:24.905Z,1026.52
2019-02-12T15:04:20.842Z,1026.44
2019-02-12T15:09:17.607Z,1026.41
2019-02-12T15:14:13.039Z,1026.36
2019-02-12T15:19:09.602Z,1026.30
2019-02-12T15:24:05.124Z,1026.28
2019-02-12T15:29:00.994Z,1026.28
2019-02-12T15:33:56.424Z,1026.33
2019-02-12T15:38:55.653Z,1026.38
2019-02-12T15:43:51.328Z,1026.32
2019-02-12T15:48:46.750Z,1026.28
2019-02-12T15:53:42.658Z,1026.36
2019-02-12T15:58:38.111Z,1026.38
2019-02-12T16:03:34.103Z,1026.36
2019-02-12T16:08:32.063Z,1026.46
2019-02-12T16:13:27.189Z,1026.55
2019-02-12T16:18:23.344Z,1026.63
2019-02-12T16:23:20.831Z,1026.76
2019-02-12T16:28:16.218Z,1026.89
2019-02-12T16:33:11.855Z,1026.88
2019-02-12T16:38:08.662Z,1026.91
2019-02-12T16:43:04.014Z,1026.96
2019-02-12T16:48:00.229Z,1026.98
2019-02-12T16:52:56.718Z,1027.02
2019-02-12T16:57:52.101Z,1027.13
2019-02-12T17:02:48.147Z,1027.22
2019-02-12T17:07:44.842Z,1027.17
2019-02-12T17:12:40.601Z,1027.19
2019-02-12T17:17:37.164Z,1027.23
2019-02-12T17:22:37.117Z,1027.14
2019-02-12T17:27:31.703Z,1027.17
2019-02-12T17:32:27.023Z,1027.10
2019-02-12T17:37:22.545Z,1027.14
2019-02-12T17:42:18.043Z,1027.17
2019-02-12T17:47:13.434Z,1027.25
2019-02-12T17:52:10.102Z,1027.23
2019-02-12T17:57:07.502Z,1027.27
2019-02-12T18:02:02.905Z,1027.26
2019-02-12T18:06:59.649Z,1027.28
2019-02-12T18:11:55.767Z,1027.29
2019-02-12T18:16:52.690Z,1027.24
2019-02-12T18:21:48.053Z,1027.22
2019-02-12T18:26:43.521Z,1027.26
2019-02-12T18:31:40.202Z,1027.14
2019-02-12T18:36:35.604Z,1027.13
2019-02-12T18:41:32.263Z,1027.19
2019-02-12T18:46:29.554Z,1027.07
2019-02-12T18:51:24.858Z,1027.14
2019-02-12T18:56:20.530Z,1027.10
2019-02-12T19:01:17.290Z,1027.06
2019-02-12T19:06:12.708Z,1027.08
2019-02-12T19:11:08.731Z,1027.10
2019-02-12T19:16:04.490Z,1027.07
2019-02-12T19:21:00.018Z,1027.21
2019-02-12T19:25:56.426Z,1027.17
2019-02-12T19:30:53.021Z,1027.14
2019-02-12T19:35:49.209Z,1027.13
2019-02-12T19:40:44.641Z,1027.35
2019-02-12T19:45:40.022Z,1027.35
2019-02-12T19:50:36.736Z,1027.32
2019-02-12T19:55:32.452Z,1027.38
2019-02-12T20:00:28.978Z,1027.32
2019-02-12T20:05:24.151Z,1027.25
2019-02-12T20:10:21.500Z,1027.21
2019-02-12T20:15:17.292Z,1027.19
2019-02-12T20:20:13.024Z,1027.30
2019-02-12T20:25:08.632Z,1027.18
2019-02-12T20:30:04.127Z,1027.09
2019-02-12T20:35:00.061Z,1027.12
2019-02-12T20:39:55.874Z,1027.03
2019-02-12T20:44:52.590Z,1027.04
2019-02-12T20:49:47.739Z,1027.05
2019-02-12T20:54:43.290Z,1027.11
2019-02-12T20:59:39.087Z,1027.12
2019-02-12T21:04:34.616Z,1027.12
2019-02-12T21:09:30.290Z,1027.09
2019-02-12T21:14:26.253Z,1027.07
2019-02-12T21:19:21.846Z,1027.18
2019-02-12T21:24:17.522Z,1027.27
2019-02-12T21:29:13.150Z,1027.45
2019-02-12T21:34:09.768Z,1027.44
2019-02-12T21:39:05.234Z,1027.44
2019-02-12T21:44:00.593Z,1027.46
2019-02-12T21:48:57.434Z,1027.45
2019-02-12T21:53:52.990Z,1027.58
2019-02-12T21:58:48.782Z,1027.67
2019-02-12T22:03:44.543Z,1027.73
2019-02-12T22:08:40.602Z,1027.74
2019-02-12T22:13:36.541Z,1027.75
2019-02-12T22:18:32.108Z,1027.74
2019-02-12T22:23:29.028Z,1027.83
2019-02-12T22:28:24.441Z,1027.75
2019-02-12T22:33:20.499Z,1027.77
2019-02-12T22:38:16.183Z,1027.87
2019-02-12T22:43:11.964Z,1027.92
2019-02-12T22:48:08.725Z,1027.77
2019-02-12T22:53:05.039Z,1027.78
2019-02-12T22:58:00.386Z,1027.72
2019-02-12T23:02:55.784Z,1027.86
2019-02-12T23:07:51.575Z,1027.85
2019-02-12T23:12:47.335Z,1027.90
2019-02-12T23:17:43.585Z,1027.82
2019-02-12T23:22:40.003Z,1027.83
2019-02-12T23:27:36.675Z,1027.69
2019-02-12T23:32:33.124Z,1027.70
2019-02-12T23:37:29.551Z,1027.78
2019-02-12T23:42:26.319Z,1027.86
2019-02-12T23:47:21.779Z,1028.01
2019-02-12T23:52:17.467Z,1028.00
2019-02-12T23:57:13.715Z,1027.95
